Time;durP1;ratioP1;P1;durP2;ratioP2;P2;SDS_P1;SDS_P2;PMS_P1;PMS_P2;Temp;Humidity;BMP_temperature;BMP_pressure;BME280_temperature;BME280_humidity;BME280_pressure;Samples;Min_cycle;Max_cycle;Signal;HPM_P1;HPM_P2
2022/09/10 00:00:05;;;;;;;2.25;1.83;;;16.60;99.90;;;;;;5066068;28;20214;-69
2022/09/10 00:02:31;;;;;;;2.95;1.80;;;16.60;99.90;;;;;;5048089;28;20225;-69
2022/09/10 00:04:59;;;;;;;3.30;2.25;;;16.50;99.90;;;;;;5067798;28;20214;-69
2022/09/10 00:07:24;;;;;;;2.72;1.75;;;16.50;99.90;;;;;;5067070;28;20207;-68
2022/09/10 00:09:50;;;;;;;4.45;1.75;;;16.50;99.90;;;;;;5050115;28;20229;-69
2022/09/10 00:12:16;;;;;;;2.67;2.03;;;16.50;99.90;;;;;;5065435;28;20218;-69
2022/09/10 00:14:41;;;;;;;4.82;2.38;;;16.40;99.90;;;;;;5069862;28;20626;-70
2022/09/10 00:17:07;;;;;;;6.05;1.85;;;16.50;99.90;;;;;;5066358;28;20186;-68
2022/09/10 00:19:32;;;;;;;4.65;1.80;;;16.50;99.90;;;;;;5065027;28;20206;-68
2022/09/10 00:21:58;;;;;;;4.78;2.08;;;16.40;99.90;;;;;;5067105;28;20292;-69
2022/09/10 00:24:24;;;;;;;2.47;1.77;;;16.40;99.90;;;;;;5070369;28;20219;-68
2022/09/10 00:26:50;;;;;;;3.65;2.03;;;16.40;99.90;;;;;;5064965;28;20175;-69
2022/09/10 00:29:16;;;;;;;4.25;1.98;;;16.40;99.90;;;;;;5067839;28;20176;-67
2022/09/10 00:31:42;;;;;;;6.10;2.25;;;16.30;99.90;;;;;;5066767;28;20207;-69
2022/09/10 00:34:10;;;;;;;4.95;2.17;;;16.30;99.90;;;;;;5064679;28;20238;-68
2022/09/10 00:36:39;;;;;;;2.40;1.80;;;16.30;99.90;;;;;;5065144;28;20253;-69
2022/09/10 00:39:08;;;;;;;3.83;1.77;;;16.40;99.90;;;;;;5064783;28;20206;-69
2022/09/10 00:41:35;;;;;;;2.25;1.90;;;16.30;99.90;;;;;;5070519;28;20548;-69
2022/09/10 00:44:06;;;;;;;3.22;2.08;;;16.30;99.90;;;;;;5063029;28;20231;-69
2022/09/10 00:46:47;;;;;;;5.68;2.28;;;16.30;99.90;;;;;;5066454;28;20708;-69
2022/09/10 00:49:16;;;;;;;3.75;1.90;;;16.30;99.90;;;;;;5067516;28;20342;-69
2022/09/10 00:51:44;;;;;;;5.25;2.00;;;16.30;99.90;;;;;;5067531;28;20195;-69
2022/09/10 00:54:10;;;;;;;1.90;1.50;;;16.30;99.90;;;;;;5063150;28;20252;-69
2022/09/10 00:56:36;;;;;;;2.15;1.73;;;16.30;99.90;;;;;;5068574;28;20518;-68
2022/09/10 00:59:07;;;;;;;4.93;2.22;;;16.30;99.90;;;;;;5069751;28;20554;-69
2022/09/10 01:01:34;;;;;;;5.03;2.10;;;16.30;99.90;;;;;;5048879;28;20331;-69
2022/09/10 01:04:01;;;;;;;5.18;2.30;;;16.30;99.90;;;;;;5049199;28;20248;-69
2022/09/10 01:06:27;;;;;;;2.78;1.95;;;16.20;99.90;;;;;;5069132;28;20199;-69
2022/09/10 01:08:52;;;;;;;4.70;1.85;;;16.30;99.90;;;;;;5066887;28;20610;-67
2022/09/10 01:11:43;;;;;;;3.17;1.90;;;16.30;99.90;;;;;;5063393;28;20427;-69
2022/09/10 01:14:17;;;;;;;4.60;2.15;;;16.30;99.90;;;;;;5066079;28;20561;-69
2022/09/10 01:17:04;;;;;;;2.45;1.75;;;16.30;99.90;;;;;;5066452;28;20213;-69
2022/09/10 01:19:52;;;;;;;3.88;2.05;;;16.20;99.90;;;;;;5063406;28;20276;-68
2022/09/10 01:22:35;;;;;;;5.45;2.13;;;16.20;99.90;;;;;;5066489;28;20195;-69
2022/09/10 01:25:32;;;;;;;4.18;2.30;;;16.10;99.90;;;;;;5066161;28;20680;-69
2022/09/10 01:28:02;;;;;;;3.55;2.55;;;16.10;99.90;;;;;;5062053;28;20234;-69
2022/09/10 01:30:37;;;;;;;3.20;2.00;;;16.20;99.90;;;;;;5066704;28;20210;-69
2022/09/10 01:33:08;;;;;;;3.70;1.98;;;16.10;99.90;;;;;;5067723;28;20241;-69
2022/09/10 01:35:43;;;;;;;4.60;1.90;;;16.10;99.90;;;;;;5063112;28;20657;-69
2022/09/10 01:38:16;;;;;;;2.45;1.60;;;16.10;99.90;;;;;;5063473;28;20209;-68
2022/09/10 01:40:42;;;;;;;2.80;1.83;;;16.10;99.90;;;;;;5068250;28;20199;-70
2022/09/10 01:43:09;;;;;;;3.55;1.83;;;16.00;99.90;;;;;;5064097;28;20214;-70
2022/09/10 01:45:41;;;;;;;4.50;1.92;;;16.00;99.90;;;;;;5064432;28;20207;-69
2022/09/10 01:48:30;;;;;;;3.08;1.60;;;16.00;99.90;;;;;;5064626;28;20203;-70
2022/09/10 01:50:56;;;;;;;3.63;1.70;;;16.00;99.90;;;;;;5018188;28;20691;-70
2022/09/10 01:53:24;;;;;;;2.88;1.85;;;16.00;99.90;;;;;;5049593;28;20906;-70
2022/09/10 01:56:08;;;;;;;6.55;2.15;;;16.00;99.90;;;;;;5066786;28;20223;-70
2022/09/10 01:58:40;;;;;;;3.53;2.08;;;16.00;99.90;;;;;;5066715;28;20253;-70
2022/09/10 02:01:30;;;;;;;5.65;2.28;;;16.00;99.90;;;;;;5044079;28;20627;-70
2022/09/10 02:04:01;;;;;;;2.47;1.52;;;15.90;99.90;;;;;;5048137;28;20210;-70
2022/09/10 02:06:31;;;;;;;3.63;1.80;;;15.90;99.90;;;;;;5051860;28;20210;-71
2022/09/10 02:08:59;;;;;;;3.88;1.90;;;15.90;99.90;;;;;;5065669;28;20227;-70
2022/09/10 02:11:24;;;;;;;5.32;2.33;;;15.90;99.90;;;;;;5060722;28;20162;-70
2022/09/10 02:13:51;;;;;;;4.00;1.77;;;15.80;99.90;;;;;;5041308;28;20211;-71
2022/09/10 02:16:29;;;;;;;3.03;1.77;;;15.90;99.90;;;;;;5065037;28;20261;-70
2022/09/10 02:18:57;;;;;;;4.03;1.73;;;15.90;99.90;;;;;;5042402;28;20648;-70
2022/09/10 02:21:23;;;;;;;4.22;2.00;;;15.90;99.90;;;;;;5064278;28;20204;-70
2022/09/10 02:24:04;;;;;;;4.60;2.15;;;15.90;99.90;;;;;;5068249;28;20222;-70
2022/09/10 02:26:33;;;;;;;2.40;1.80;;;15.80;99.90;;;;;;5043636;28;20175;-70
2022/09/10 02:29:03;;;;;;;3.63;2.00;;;15.80;99.90;;;;;;5064016;28;20758;-70
2022/09/10 02:31:29;;;;;;;3.85;1.92;;;15.80;99.90;;;;;;5069164;28;20608;-70
2022/09/10 02:33:54;;;;;;;6.22;2.10;;;15.80;99.90;;;;;;5069143;28;20217;-70
2022/09/10 02:36:20;;;;;;;2.40;1.80;;;15.80;99.90;;;;;;5065536;28;20682;-70
2022/09/10 02:38:46;;;;;;;4.00;1.88;;;15.80;99.90;;;;;;5070468;28;20657;-70
2022/09/10 02:41:12;;;;;;;3.58;2.08;;;15.70;99.90;;;;;;5071479;28;20218;-70
2022/09/10 02:43:38;;;;;;;4.75;2.65;;;15.60;99.90;;;;;;5069721;28;20207;-68
2022/09/10 02:46:06;;;;;;;4.53;1.98;;;15.70;99.90;;;;;;5066530;28;20214;-71
2022/09/10 02:48:32;;;;;;;3.53;1.92;;;15.70;99.90;;;;;;5067281;28;20263;-70
2022/09/10 02:50:57;;;;;;;3.28;2.10;;;15.70;99.90;;;;;;5071946;28;20231;-70
2022/09/10 02:53:24;;;;;;;5.40;2.17;;;15.70;99.90;;;;;;5065574;28;20310;-71
2022/09/10 02:55:51;;;;;;;5.82;1.90;;;15.70;99.90;;;;;;5069670;28;20792;-70
2022/09/10 02:58:17;;;;;;;3.45;1.95;;;15.70;99.90;;;;;;5070889;28;20253;-70
2022/09/10 03:00:44;;;;;;;4.82;2.58;;;15.70;99.90;;;;;;5043397;28;20215;-70
2022/09/10 03:03:10;;;;;;;4.78;2.22;;;15.60;99.90;;;;;;5046387;28;20689;-70
2022/09/10 03:05:37;;;;;;;4.57;2.08;;;15.60;99.90;;;;;;5070839;28;20258;-70
2022/09/10 03:08:03;;;;;;;4.63;1.90;;;15.50;99.90;;;;;;5071238;28;20214;-70
2022/09/10 03:10:30;;;;;;;3.30;2.00;;;15.40;99.90;;;;;;5047086;28;20959;-69
2022/09/10 03:12:56;;;;;;;4.95;2.08;;;15.50;99.90;;;;;;5065340;28;20227;-70
2022/09/10 03:15:22;;;;;;;2.88;2.10;;;15.40;99.90;;;;;;5070992;28;20211;-70
2022/09/10 03:17:47;;;;;;;2.67;1.95;;;15.50;99.90;;;;;;5061932;28;20179;-70
2022/09/10 03:20:13;;;;;;;3.72;1.90;;;15.50;99.90;;;;;;5047544;28;20179;-70
2022/09/10 03:22:38;;;;;;;3.35;1.88;;;15.50;99.90;;;;;;5070098;28;20203;-70
2022/09/10 03:25:05;;;;;;;4.20;2.17;;;15.50;99.90;;;;;;5070203;28;20337;-70
2022/09/10 03:27:31;;;;;;;4.88;2.72;;;15.40;99.90;;;;;;5065179;28;20295;-70
2022/09/10 03:29:56;;;;;;;5.30;2.10;;;15.40;99.90;;;;;;5064989;28;20281;-70
2022/09/10 03:32:23;;;;;;;4.93;2.15;;;15.40;99.90;;;;;;5071112;28;20650;-70
2022/09/10 03:34:48;;;;;;;3.55;2.28;;;15.40;99.90;;;;;;5057111;28;20223;-70
2022/09/10 03:37:15;;;;;;;4.10;2.00;;;15.40;99.90;;;;;;5064593;28;20226;-70
2022/09/10 03:39:41;;;;;;;5.07;2.30;;;15.40;99.90;;;;;;5069308;28;20206;-70
2022/09/10 03:42:06;;;;;;;3.17;2.25;;;15.40;99.90;;;;;;5068741;28;20608;-70
2022/09/10 03:44:32;;;;;;;3.78;2.13;;;15.30;99.90;;;;;;5064957;28;20222;-71
2022/09/10 03:46:59;;;;;;;3.83;2.20;;;15.30;99.90;;;;;;5067105;28;20223;-70
2022/09/10 03:49:25;;;;;;;4.10;2.30;;;15.30;99.90;;;;;;5070262;28;20199;-69
2022/09/10 03:51:51;;;;;;;6.57;2.63;;;15.20;99.90;;;;;;5068792;28;20214;-70
2022/09/10 03:54:18;;;;;;;3.20;2.28;;;15.20;99.90;;;;;;5064181;28;20219;-70
2022/09/10 03:56:43;;;;;;;8.55;2.63;;;15.20;99.90;;;;;;5069220;28;20179;-70
2022/09/10 03:59:12;;;;;;;4.47;2.70;;;15.30;99.90;;;;;;5068748;28;20529;-69
2022/09/10 04:01:38;;;;;;;6.53;2.88;;;15.30;99.90;;;;;;5064842;28;20199;-70
2022/09/10 04:04:04;;;;;;;2.95;2.30;;;15.30;99.90;;;;;;5065702;28;20218;-70
2022/09/10 04:06:31;;;;;;;3.88;2.30;;;15.30;99.90;;;;;;5070432;28;20203;-71
2022/09/10 04:08:57;;;;;;;3.15;2.20;;;15.20;99.90;;;;;;5067453;28;20207;-71
2022/09/10 04:11:26;;;;;;;8.82;2.95;;;15.20;99.90;;;;;;5064935;28;20167;-70
2022/09/10 04:13:52;;;;;;;5.03;2.30;;;15.10;99.90;;;;;;5066133;28;20206;-70
2022/09/10 04:16:17;;;;;;;4.10;2.22;;;15.00;99.90;;;;;;5068086;28;20211;-69
2022/09/10 04:18:43;;;;;;;2.88;1.88;;;15.00;99.90;;;;;;5065106;28;20219;-69
2022/09/10 04:21:08;;;;;;;5.68;2.78;;;15.00;99.90;;;;;;5064828;28;20540;-71
2022/09/10 04:23:34;;;;;;;3.60;2.28;;;15.00;99.90;;;;;;5069795;28;20751;-70
2022/09/10 04:25:59;;;;;;;4.40;2.63;;;15.00;99.90;;;;;;5067183;28;20171;-70
2022/09/10 04:28:25;;;;;;;4.32;2.08;;;15.10;99.90;;;;;;5046518;28;20708;-71
2022/09/10 04:30:51;;;;;;;3.78;2.33;;;15.20;99.90;;;;;;5087503;22;20772;-71
2022/09/10 04:33:17;;;;;;;4.00;2.25;;;15.20;99.90;;;;;;5048604;28;20204;-71
2022/09/10 04:35:42;;;;;;;3.80;2.60;;;15.20;99.90;;;;;;5045773;28;20587;-72
2022/09/10 04:38:08;;;;;;;4.47;2.28;;;15.20;99.90;;;;;;5038038;28;20194;-72
2022/09/10 04:40:34;;;;;;;5.50;2.35;;;15.20;99.90;;;;;;5048003;28;20204;-72
2022/09/10 04:43:00;;;;;;;4.57;2.58;;;15.10;99.90;;;;;;5028511;28;20218;-72
2022/09/10 04:45:26;;;;;;;6.00;2.88;;;15.20;99.90;;;;;;5040829;28;20208;-71
2022/09/10 04:47:53;;;;;;;4.00;1.98;;;15.20;99.90;;;;;;5044767;28;20241;-72
2022/09/10 04:50:19;;;;;;;3.35;2.60;;;15.10;99.90;;;;;;5043531;28;20175;-72
2022/09/10 04:52:45;;;;;;;6.20;3.78;;;15.10;99.90;;;;;;5040126;28;20632;-72
2022/09/10 04:55:10;;;;;;;3.28;2.53;;;15.20;99.90;;;;;;5042118;28;20709;-71
2022/09/10 04:57:37;;;;;;;3.50;2.33;;;15.30;99.90;;;;;;5042520;28;20207;-72
2022/09/10 05:00:07;;;;;;;4.97;2.38;;;15.30;99.90;;;;;;5040375;28;20208;-72
2022/09/10 05:02:33;;;;;;;4.70;3.10;;;15.20;99.90;;;;;;5043076;28;20187;-72
2022/09/10 05:04:58;;;;;;;7.05;2.72;;;15.30;99.90;;;;;;5045035;28;20207;-72
2022/09/10 05:07:24;;;;;;;6.57;3.30;;;15.40;99.90;;;;;;5032852;28;20666;-72
2022/09/10 05:09:50;;;;;;;3.67;2.38;;;15.40;99.90;;;;;;5042650;28;20236;-74
2022/09/10 05:12:18;;;;;;;4.32;2.22;;;15.40;99.90;;;;;;5040491;28;20665;-71
2022/09/10 05:14:44;;;;;;;4.43;2.53;;;15.50;99.90;;;;;;5043204;28;20191;-72
2022/09/10 05:17:10;;;;;;;5.68;2.25;;;15.50;99.90;;;;;;5040804;28;20183;-72
2022/09/10 05:19:35;;;;;;;3.35;2.10;;;15.60;99.90;;;;;;5042143;28;20218;-72
2022/09/10 05:22:01;;;;;;;4.05;2.25;;;15.70;99.90;;;;;;5040571;28;20630;-71
2022/09/10 05:24:27;;;;;;;2.63;1.90;;;16.00;99.90;;;;;;5042450;28;20628;-72
2022/09/10 05:26:52;;;;;;;3.28;1.95;;;16.40;99.90;;;;;;5042927;28;20175;-71
2022/09/10 05:29:18;;;;;;;2.80;2.00;;;16.90;99.90;;;;;;5040821;28;20181;-74
2022/09/10 05:31:44;;;;;;;4.90;1.90;;;17.80;99.90;;;;;;5038958;28;20216;-72
2022/09/10 05:34:10;;;;;;;2.95;1.85;;;19.60;99.90;;;;;;5043815;28;20207;-73
2022/09/10 05:36:35;;;;;;;2.70;1.60;;;21.20;99.90;;;;;;5043122;28;20211;-72
2022/09/10 05:39:04;;;;;;;3.03;1.88;;;22.10;99.90;;;;;;5041240;28;20207;-73
2022/09/10 05:41:30;;;;;;;2.47;1.90;;;22.50;99.90;;;;;;5041737;28;20206;-72
2022/09/10 05:43:56;;;;;;;2.17;1.75;;;23.10;99.90;;;;;;5038450;28;20207;-70
2022/09/10 05:46:23;;;;;;;2.75;1.67;;;23.20;99.90;;;;;;5040460;28;20208;-71
2022/09/10 05:48:49;;;;;;;1.67;1.33;;;23.10;99.90;;;;;;5027189;28;20209;-71
2022/09/10 05:51:16;;;;;;;2.67;1.40;;;23.70;99.90;;;;;;5038329;28;20212;-71
2022/09/10 05:53:41;;;;;;;1.98;1.58;;;25.20;99.90;;;;;;5042149;28;20225;-71
2022/09/10 05:56:07;;;;;;;2.90;1.60;;;26.10;99.90;;;;;;5038976;28;20287;-73
2022/09/10 05:58:35;;;;;;;3.88;1.77;;;26.60;99.90;;;;;;5041344;28;20200;-71
2022/09/10 06:01:01;;;;;;;2.78;1.38;;;27.20;99.90;;;;;;5022233;28;20705;-72
2022/09/10 06:03:26;;;;;;;1.80;1.30;;;27.60;99.90;;;;;;5024647;28;20218;-71
2022/09/10 06:05:52;;;;;;;3.55;1.95;;;28.20;99.90;;;;;;5024460;28;20182;-75
2022/09/10 06:08:22;;;;;;;2.75;1.60;;;28.60;99.90;;;;;;5037022;28;20184;-73
2022/09/10 06:10:59;;;;;;;3.15;1.77;;;28.60;99.90;;;;;;5020072;28;20208;-72
2022/09/10 06:13:25;;;;;;;3.05;1.10;;;28.20;99.90;;;;;;5027373;28;20638;-72
2022/09/10 06:15:50;;;;;;;2.10;1.27;;;28.20;99.90;;;;;;5036683;28;20223;-71
2022/09/10 06:18:16;;;;;;;3.22;1.52;;;28.10;99.90;;;;;;5037260;28;20208;-72
2022/09/10 06:20:42;;;;;;;4.15;1.52;;;28.90;99.90;;;;;;5040949;28;20191;-72
2022/09/10 06:23:07;;;;;;;3.30;1.75;;;28.80;99.90;;;;;;5027870;28;20187;-71
2022/09/10 06:25:33;;;;;;;2.38;1.35;;;28.60;99.90;;;;;;5027632;28;20261;-71
2022/09/10 06:28:00;;;;;;;1.75;1.35;;;28.70;99.90;;;;;;5039787;28;20751;-72
2022/09/10 06:30:26;;;;;;;3.38;1.50;;;29.10;99.90;;;;;;5022703;28;20705;-72
2022/09/10 06:32:52;;;;;;;2.60;1.40;;;29.30;99.90;;;;;;5038499;28;20548;-73
2022/09/10 06:35:17;;;;;;;3.20;1.50;;;29.70;99.90;;;;;;5038677;28;20188;-71
2022/09/10 06:37:44;;;;;;;2.33;1.42;;;29.80;99.90;;;;;;5041256;28;20203;-71
2022/09/10 06:40:09;;;;;;;1.95;1.35;;;29.60;99.90;;;;;;5041543;28;20781;-72
2022/09/10 06:42:35;;;;;;;2.65;1.95;;;29.60;99.90;;;;;;5038235;28;20287;-72
2022/09/10 06:45:00;;;;;;;4.55;3.97;;;29.70;99.90;;;;;;5039056;28;20200;-73
2022/09/10 06:47:26;;;;;;;4.43;3.88;;;30.10;99.90;;;;;;5041358;28;20179;-71
2022/09/10 06:49:51;;;;;;;4.03;2.03;;;30.00;99.90;;;;;;5037915;28;20208;-71
2022/09/10 06:52:17;;;;;;;2.75;1.80;;;29.70;99.90;;;;;;5038124;28;20231;-73
2022/09/10 06:54:43;;;;;;;2.42;1.50;;;30.10;99.90;;;;;;5026050;28;20620;-71
2022/09/10 06:57:09;;;;;;;5.72;1.90;;;30.50;99.20;;;;;;5038911;28;20290;-72
2022/09/10 06:59:34;;;;;;;2.65;1.90;;;30.40;98.90;;;;;;5037899;28;20245;-72
2022/09/10 07:02:01;;;;;;;4.95;2.83;;;30.20;99.20;;;;;;5039523;28;20222;-72
2022/09/10 07:04:27;;;;;;;5.82;4.13;;;30.30;99.00;;;;;;5040493;28;20211;-72
2022/09/10 07:06:52;;;;;;;3.13;1.90;;;31.00;97.90;;;;;;5037973;28;20212;-73
2022/09/10 07:09:18;;;;;;;2.55;1.73;;;30.90;97.90;;;;;;5037470;28;20215;-73
2022/09/10 07:11:44;;;;;;;4.40;2.30;;;30.80;97.50;;;;;;5025774;28;20207;-70
2022/09/10 07:14:12;;;;;;;5.07;2.30;;;30.80;97.70;;;;;;5039370;28;20649;-73
2022/09/10 07:16:44;;;;;;;2.33;1.65;;;30.70;97.60;;;;;;5031633;28;20590;-70
2022/09/10 07:19:12;;;;;;;2.17;1.73;;;31.00;97.30;;;;;;5041022;28;20285;-71
2022/09/10 07:21:38;;;;;;;3.13;2.10;;;31.50;96.10;;;;;;5040656;28;20210;-71
2022/09/10 07:24:04;;;;;;;2.67;2.30;;;31.60;95.90;;;;;;5042077;28;20200;-73
2022/09/10 07:26:30;;;;;;;2.30;1.75;;;31.30;95.20;;;;;;5028423;28;20172;-72
2022/09/10 07:28:57;;;;;;;2.05;1.25;;;31.50;95.40;;;;;;5026963;28;20264;-73
2022/09/10 07:31:26;;;;;;;4.40;1.40;;;31.30;95.50;;;;;;5043224;28;20632;-72
2022/09/10 07:33:53;;;;;;;2.63;1.35;;;31.30;95.60;;;;;;5040988;28;20207;-73
2022/09/10 07:36:19;;;;;;;2.75;1.42;;;31.60;95.20;;;;;;5025389;28;20204;-72
2022/09/10 07:38:44;;;;;;;2.20;1.33;;;31.40;95.10;;;;;;5044878;28;20233;-72
2022/09/10 07:41:12;;;;;;;8.98;8.02;;;31.50;94.90;;;;;;5043568;28;20192;-72
2022/09/10 07:43:42;;;;;;;3.63;2.05;;;31.50;94.70;;;;;;5041128;28;20229;-71
2022/09/10 07:46:18;;;;;;;8.10;5.50;;;31.60;94.50;;;;;;5026071;28;20219;-71
2022/09/10 07:48:43;;;;;;;3.45;2.13;;;31.10;95.20;;;;;;5042737;28;20629;-72
2022/09/10 07:51:10;;;;;;;3.20;1.80;;;30.80;95.60;;;;;;5030459;28;20207;-71
2022/09/10 07:53:37;;;;;;;3.08;1.48;;;31.20;95.40;;;;;;5046682;28;20194;-72
2022/09/10 07:56:05;;;;;;;2.85;1.20;;;30.50;95.60;;;;;;5027621;28;20638;-71
2022/09/10 07:58:34;;;;;;;2.78;1.25;;;30.80;95.80;;;;;;5043934;28;20600;-72
2022/09/10 08:01:00;;;;;;;2.17;0.88;;;31.10;95.30;;;;;;5024461;28;20210;-72
2022/09/10 08:03:27;;;;;;;6.35;3.80;;;30.50;95.80;;;;;;5042684;28;20640;-72
2022/09/10 08:05:54;;;;;;;4.72;3.17;;;31.00;95.90;;;;;;5040786;28;20227;-71
2022/09/10 08:08:20;;;;;;;3.20;1.48;;;31.10;95.70;;;;;;5034099;28;20532;-72
2022/09/10 08:10:47;;;;;;;2.55;1.30;;;31.00;95.40;;;;;;5027122;28;20227;-72
2022/09/10 08:13:13;;;;;;;3.08;1.35;;;31.20;94.80;;;;;;5041218;28;20266;-72
2022/09/10 08:15:43;;;;;;;2.00;1.20;;;31.00;95.20;;;;;;5030653;28;20601;-72
2022/09/10 08:18:10;;;;;;;2.47;1.08;;;30.80;95.70;;;;;;5040187;28;20265;-73
2022/09/10 08:20:38;;;;;;;2.47;1.13;;;30.70;95.70;;;;;;5043258;28;20286;-71
2022/09/10 08:23:04;;;;;;;3.42;1.95;;;30.60;96.00;;;;;;5028956;28;20195;-71
2022/09/10 08:25:29;;;;;;;4.28;2.50;;;30.30;96.30;;;;;;5040073;28;20212;-72
2022/09/10 08:27:56;;;;;;;4.47;3.65;;;30.20;96.40;;;;;;5041959;28;20204;-70
2022/09/10 08:30:22;;;;;;;1.58;1.25;;;30.60;96.30;;;;;;5027851;28;20640;-70
2022/09/10 08:32:47;;;;;;;3.20;1.48;;;30.40;96.60;;;;;;5040754;28;20188;-70
2022/09/10 08:35:13;;;;;;;1.83;1.02;;;30.20;96.60;;;;;;5043746;28;20262;-71
2022/09/10 08:37:39;;;;;;;3.05;1.42;;;30.30;96.50;;;;;;5043249;28;20282;-70
2022/09/10 08:40:06;;;;;;;3.08;1.10;;;29.90;96.20;;;;;;5042198;28;20582;-71
2022/09/10 08:42:41;;;;;;;2.25;1.00;;;29.70;97.60;;;;;;5039771;28;20558;-71
2022/09/10 08:45:19;;;;;;;1.48;1.00;;;30.10;97.50;;;;;;5039916;28;20223;-70
2022/09/10 08:48:01;;;;;;;2.50;1.30;;;30.00;97.90;;;;;;5023739;28;20187;-71
2022/09/10 08:50:48;;;;;;;6.38;3.88;;;30.00;97.50;;;;;;5043301;28;20194;-71
2022/09/10 08:53:28;;;;;;;4.25;1.30;;;29.90;97.80;;;;;;5023838;28;20211;-71
2022/09/10 08:55:58;;;;;;;2.80;1.10;;;29.40;97.90;;;;;;5040598;28;20227;-72
2022/09/10 08:58:26;;;;;;;2.13;1.23;;;28.90;99.00;;;;;;5043098;28;20206;-72
2022/09/10 09:00:56;;;;;;;1.65;0.90;;;28.90;99.70;;;;;;5042619;28;20216;-73
2022/09/10 09:03:27;;;;;;;2.53;1.05;;;28.70;99.90;;;;;;5040895;28;20234;-71
2022/09/10 09:05:57;;;;;;;2.28;1.30;;;28.90;99.90;;;;;;5026895;28;20260;-71
2022/09/10 09:08:32;;;;;;;2.72;0.93;;;28.60;99.90;;;;;;5021724;28;20188;-72
2022/09/10 09:11:21;;;;;;;2.22;1.20;;;28.70;99.90;;;;;;5039976;28;20214;-72
2022/09/10 09:14:08;;;;;;;2.80;1.30;;;28.30;99.90;;;;;;5039871;28;20208;-73
2022/09/10 09:17:11;;;;;;;2.80;1.42;;;28.10;99.90;;;;;;5042235;28;20265;-72
2022/09/10 09:19:47;;;;;;;3.70;1.02;;;28.10;99.90;;;;;;4987659;28;20240;-71
2022/09/10 09:22:34;;;;;;;2.63;1.10;;;27.90;99.90;;;;;;5032069;28;20223;-71
2022/09/10 09:25:21;;;;;;;3.63;1.20;;;27.70;99.90;;;;;;5038251;28;20216;-71
2022/09/10 09:27:48;;;;;;;1.90;0.90;;;26.80;99.90;;;;;;5038362;28;20280;-72
2022/09/10 09:30:26;;;;;;;2.53;0.95;;;26.60;99.90;;;;;;5027198;28;20204;-72
2022/09/10 09:32:56;;;;;;;2.20;1.13;;;26.20;99.90;;;;;;5027438;28;20184;-71
2022/09/10 09:35:41;;;;;;;2.17;1.00;;;26.40;99.90;;;;;;5039936;28;20234;-71
2022/09/10 09:38:07;;;;;;;1.88;1.30;;;26.60;99.90;;;;;;5024800;28;20721;-72
2022/09/10 09:40:48;;;;;;;2.63;1.70;;;26.80;99.90;;;;;;5043368;28;20216;-72
2022/09/10 09:43:40;;;;;;;1.45;1.17;;;27.10;99.90;;;;;;5038062;28;20208;-72
2022/09/10 09:46:14;;;;;;;4.45;1.13;;;27.30;99.90;;;;;;5038723;28;20228;-72
2022/09/10 09:48:41;;;;;;;2.70;1.08;;;27.10;99.90;;;;;;5040501;28;20198;-71
2022/09/10 09:51:12;;;;;;;3.42;1.50;;;26.60;99.90;;;;;;5037399;28;20212;-72
2022/09/10 09:53:37;;;;;;;3.42;1.33;;;26.30;99.90;;;;;;5041020;28;20176;-72
2022/09/10 09:56:11;;;;;;;3.47;1.30;;;26.20;99.90;;;;;;5038055;28;20181;-72
2022/09/10 09:58:38;;;;;;;1.55;0.82;;;26.30;99.90;;;;;;5040583;28;20204;-72
2022/09/10 10:01:08;;;;;;;1.92;1.00;;;25.80;99.90;;;;;;5025640;28;20723;-72
2022/09/10 10:03:51;;;;;;;4.30;1.40;;;25.80;99.90;;;;;;5041374;28;20209;-71
2022/09/10 10:06:20;;;;;;;3.28;1.08;;;25.80;99.90;;;;;;5040381;28;20705;-71
2022/09/10 10:08:55;;;;;;;1.80;0.90;;;25.80;99.90;;;;;;5042418;28;20230;-72
2022/09/10 10:11:22;;;;;;;3.47;1.05;;;25.60;99.90;;;;;;5042527;28;20603;-72
2022/09/10 10:13:51;;;;;;;4.93;1.25;;;25.50;99.90;;;;;;5039681;28;20211;-72
2022/09/10 10:16:21;;;;;;;2.22;0.80;;;25.70;99.90;;;;;;5041685;28;20596;-73
2022/09/10 10:18:48;;;;;;;3.47;1.25;;;25.80;99.90;;;;;;5034261;28;20223;-72
2022/09/10 10:21:28;;;;;;;4.95;1.50;;;25.70;99.90;;;;;;5037832;28;20607;-72
2022/09/10 10:23:53;;;;;;;3.53;1.30;;;25.40;99.90;;;;;;5037805;28;20365;-72
2022/09/10 10:26:19;;;;;;;5.38;1.30;;;25.40;99.90;;;;;;5028574;28;20900;-72
2022/09/10 10:28:50;;;;;;;1.10;0.60;;;25.40;99.90;;;;;;5041370;28;20203;-72
2022/09/10 10:31:16;;;;;;;6.15;3.22;;;25.80;99.90;;;;;;5060596;22;20231;-69
2022/09/10 10:34:03;;;;;;;8.02;4.43;;;26.20;99.90;;;;;;5080904;28;20210;-69
2022/09/10 10:36:30;;;;;;;4.18;1.90;;;26.20;99.90;;;;;;5082114;28;20209;-69
2022/09/10 10:39:27;;;;;;;3.95;1.90;;;26.00;99.90;;;;;;5065455;28;20210;-70
2022/09/10 10:42:07;;;;;;;7.78;1.38;;;25.70;99.90;;;;;;5062845;28;20224;-70
2022/09/10 10:44:51;;;;;;;4.15;2.22;;;25.70;99.90;;;;;;5056397;28;20268;-69
2022/09/10 10:47:51;;;;;;;5.68;3.45;;;25.80;99.90;;;;;;5049284;28;20174;-70
2022/09/10 10:50:22;;;;;;;3.95;1.73;;;26.20;99.90;;;;;;5044365;28;20207;-68
2022/09/10 10:53:17;;;;;;;2.17;0.82;;;26.30;99.90;;;;;;5053990;28;20215;-70
2022/09/10 10:56:01;;;;;;;2.92;1.13;;;26.80;99.90;;;;;;5035484;28;20242;-68
2022/09/10 10:58:43;;;;;;;2.28;1.30;;;27.30;99.90;;;;;;5048784;28;20223;-70
2022/09/10 11:01:23;;;;;;;4.13;0.98;;;27.20;99.90;;;;;;5052873;28;20638;-70
2022/09/10 11:04:17;;;;;;;2.80;1.17;;;26.80;99.90;;;;;;5052106;28;20298;-70
2022/09/10 11:06:48;;;;;;;3.05;1.25;;;27.00;99.90;;;;;;5047376;28;20719;-69
2022/09/10 11:09:32;;;;;;;4.70;1.60;;;26.80;99.90;;;;;;5054989;28;20286;-70
2022/09/10 11:12:17;;;;;;;2.42;1.42;;;26.50;99.90;;;;;;5053595;28;20211;-69
2022/09/10 11:14:47;;;;;;;1.75;1.20;;;26.10;99.90;;;;;;5048349;28;20175;-69
2022/09/10 11:17:18;;;;;;;1.55;1.05;;;26.30;99.90;;;;;;5048143;28;20233;-69
2022/09/10 11:20:17;;;;;;;5.72;2.50;;;25.60;99.90;;;;;;5032851;28;20947;-68
2022/09/10 11:22:49;;;;;;;2.47;2.08;;;25.70;99.90;;;;;;5027416;28;20215;-69
2022/09/10 11:25:29;;;;;;;4.43;1.40;;;25.50;99.90;;;;;;5049261;28;20210;-69
2022/09/10 11:28:09;;;;;;;3.03;1.58;;;25.20;99.90;;;;;;5054967;28;20199;-70
2022/09/10 11:30:40;;;;;;;2.92;1.90;;;25.00;99.90;;;;;;5029554;28;20613;-68
2022/09/10 11:33:23;;;;;;;6.30;3.38;;;25.50;99.90;;;;;;5047178;28;20247;-76
2022/09/10 11:36:29;;;;;;;2.75;1.27;;;25.70;99.90;;;;;;5051232;28;20195;-69
2022/09/10 11:39:05;;;;;;;1.60;0.80;;;25.90;99.90;;;;;;5036956;28;20215;-71
2022/09/10 11:41:32;;;;;;;2.97;1.33;;;26.10;99.90;;;;;;5052520;28;20608;-71
2022/09/10 11:44:19;;;;;;;2.80;1.20;;;26.00;99.90;;;;;;5051955;28;20211;-68
2022/09/10 11:46:55;;;;;;;1.75;1.10;;;25.90;99.90;;;;;;5034837;28;20223;-70
2022/09/10 11:49:26;;;;;;;5.05;1.92;;;26.10;99.90;;;;;;5050222;28;20345;-69
2022/09/10 11:51:51;;;;;;;2.30;1.65;;;25.90;99.90;;;;;;5033565;28;20226;-68
2022/09/10 11:54:24;;;;;;;5.60;2.10;;;25.60;99.90;;;;;;5052071;28;20680;-68
2022/09/10 11:57:06;;;;;;;3.10;1.70;;;25.60;99.90;;;;;;5052976;28;20327;-69
2022/09/10 11:59:43;;;;;;;3.70;1.70;;;25.40;99.90;;;;;;5051516;28;20258;-68
2022/09/10 12:02:45;;;;;;;18.42;11.27;;;25.20;99.90;;;;;;5052056;28;20260;-69
2022/09/10 12:05:31;;;;;;;2.38;1.40;;;25.20;99.90;;;;;;5034532;28;20298;-68
2022/09/10 12:08:48;;;;;;;1.90;1.20;;;24.90;99.90;;;;;;5053170;28;20214;-70
2022/09/10 12:11:35;;;;;;;4.53;2.08;;;24.70;99.90;;;;;;4999707;28;20215;-70
2022/09/10 12:14:13;;;;;;;3.50;1.30;;;24.80;99.90;;;;;;5064240;28;20204;-71
2022/09/10 12:16:54;;;;;;;1.33;1.17;;;25.20;99.90;;;;;;5074804;28;20238;-68
2022/09/10 12:19:28;;;;;;;2.10;0.93;;;25.60;99.90;;;;;;5034286;28;20626;-69
2022/09/10 12:22:00;;;;;;;2.90;1.73;;;26.00;99.90;;;;;;5036103;28;20573;-70
2022/09/10 12:24:30;;;;;;;3.10;1.02;;;26.20;99.90;;;;;;5046571;28;20295;-69
2022/09/10 12:26:58;;;;;;;2.58;1.52;;;26.10;99.90;;;;;;5055453;28;20206;-69
2022/09/10 12:29:44;;;;;;;3.50;1.25;;;25.70;99.90;;;;;;5055906;28;20179;-68
2022/09/10 12:32:18;;;;;;;3.08;1.70;;;25.60;99.90;;;;;;5050812;28;20223;-69
2022/09/10 12:34:49;;;;;;;5.55;1.63;;;25.40;99.90;;;;;;5047913;28;20632;-69
2022/09/10 12:37:33;;;;;;;1.52;0.85;;;25.10;99.90;;;;;;5056699;28;20681;-69
2022/09/10 12:40:27;;;;;;;1.30;0.88;;;25.20;99.90;;;;;;5050644;28;20211;-69
2022/09/10 12:42:59;;;;;;;1.92;0.82;;;25.00;99.90;;;;;;5048325;28;20219;-69
2022/09/10 12:46:00;;;;;;;1.33;0.80;;;25.30;99.90;;;;;;5041455;28;20280;-69
2022/09/10 12:48:25;;;;;;;1.98;0.80;;;25.40;99.90;;;;;;5048174;28;20199;-70
2022/09/10 12:50:56;;;;;;;2.45;1.00;;;25.30;99.90;;;;;;5041224;28;20239;-69
2022/09/10 12:53:36;;;;;;;2.63;1.20;;;25.40;99.90;;;;;;5052940;28;20619;-69
2022/09/10 12:56:40;;;;;;;1.50;0.90;;;25.50;99.90;;;;;;5050696;28;20200;-69
2022/09/10 12:59:17;;;;;;;1.67;0.85;;;25.40;99.90;;;;;;5042908;28;20283;-69
2022/09/10 13:01:46;;;;;;;2.38;0.82;;;25.10;99.90;;;;;;5052836;28;20393;-68
2022/09/10 13:04:29;;;;;;;2.97;1.48;;;25.00;99.90;;;;;;5052666;28;20204;-67
2022/09/10 13:07:22;;;;;;;3.58;1.40;;;24.80;99.90;;;;;;5026217;28;20592;-69